Time;durP1;ratioP1;P1;durP2;ratioP2;P2;SDS_P1;SDS_P2;PMS_P1;PMS_P2;Temp;Humidity;BMP_temperature;BMP_pressure;BME280_temperature;BME280_humidity;BME280_pressure;Samples;Min_cycle;Max_cycle;Signal;HPM_P1;HPM_P2
2021/03/30 00:00:06;;;;;;;35.45;24.77;;;;;;;6.41;66.83;102082.71;1795332;79;21175;-71
2021/03/30 00:02:34;;;;;;;37.80;24.45;;;;;;;6.39;66.68;102084.75;1786988;79;21222;-70
2021/03/30 00:05:04;;;;;;;36.30;23.45;;;;;;;6.37;66.46;102080.64;1791249;77;22252;-70
2021/03/30 00:07:32;;;;;;;35.15;23.92;;;;;;;6.33;66.38;102073.06;1792857;78;21362;-70
2021/03/30 00:10:00;;;;;;;33.20;23.10;;;;;;;6.32;66.21;102077.25;1796533;79;21214;-71
2021/03/30 00:12:27;;;;;;;38.15;25.35;;;;;;;6.30;66.16;102071.30;1794567;79;21692;-71
2021/03/30 00:14:58;;;;;;;38.95;25.17;;;;;;;6.29;66.13;102074.97;1804615;79;21197;-69
2021/03/30 00:17:26;;;;;;;39.05;26.80;;;;;;;6.25;66.20;102074.54;1794928;79;21111;-70
2021/03/30 00:19:54;;;;;;;41.90;26.70;;;;;;;6.26;66.34;102074.03;1808255;79;21182;-69
2021/03/30 00:22:21;;;;;;;40.28;26.77;;;;;;;6.24;66.43;102077.36;1803306;77;21574;-70
2021/03/30 00:24:49;;;;;;;37.75;26.35;;;;;;;6.23;66.57;102080.53;1756618;79;21255;-71
2021/03/30 00:27:17;;;;;;;37.10;24.40;;;;;;;6.22;66.70;102081.55;1806493;79;21115;-71
2021/03/30 00:29:46;;;;;;;35.58;23.55;;;;;;;6.22;66.73;102083.36;1797367;79;22052;-70
2021/03/30 00:32:15;;;;;;;33.53;23.83;;;;;;;6.21;66.62;102076.42;1804504;79;21156;-69
2021/03/30 00:34:43;;;;;;;33.78;24.25;;;;;;;6.20;66.61;102084.89;1785283;79;21253;-70
2021/03/30 00:37:11;;;;;;;33.18;23.18;;;;;;;6.17;66.79;102078.63;1788089;79;21182;-70
2021/03/30 00:39:40;;;;;;;37.23;24.72;;;;;;;6.17;66.86;102078.63;1789178;79;21182;-70
2021/03/30 00:42:08;;;;;;;36.03;23.50;;;;;;;6.16;66.96;102080.98;1796729;79;21615;-70
2021/03/30 00:44:36;;;;;;;31.25;21.90;;;;;;;6.11;67.13;102084.70;1768679;79;21390;-70
2021/03/30 00:47:05;;;;;;;32.28;22.37;;;;;;;6.08;67.17;102084.56;1795216;79;21203;-69
2021/03/30 00:49:34;;;;;;;34.45;23.25;;;;;;;6.08;67.19;102089.87;1794189;79;21171;-70
2021/03/30 00:52:03;;;;;;;34.27;23.40;;;;;;;6.11;67.17;102092.66;1775934;79;21257;-70
2021/03/30 00:54:51;;;;;;;34.38;23.38;;;;;;;6.15;67.11;102087.78;1794201;79;21164;-70
2021/03/30 00:57:19;;;;;;;30.57;21.75;;;;;;;6.18;67.07;102089.55;1779448;79;22128;-71
2021/03/30 00:59:47;;;;;;;30.72;21.50;;;;;;;6.22;67.08;102089.52;1804833;79;21170;-70
2021/03/30 01:02:14;;;;;;;30.17;21.48;;;;;;;6.22;67.15;102085.53;1796797;79;21650;-70
2021/03/30 01:04:42;;;;;;;31.73;21.75;;;;;;;6.23;67.19;102086.34;1776516;80;21195;-72
2021/03/30 01:07:10;;;;;;;30.10;22.25;;;;;;;6.23;67.35;102081.04;1785758;79;21264;-70
2021/03/30 01:10:23;;;;;;;30.37;21.35;;;;;;;6.21;67.41;102082.55;1799582;78;21127;-71
2021/03/30 01:13:33;;;;;;;31.52;21.35;;;;;;;6.19;67.28;102071.31;1794688;79;21167;-70
2021/03/30 01:16:07;;;;;;;30.43;20.23;;;;;;;6.19;67.28;102075.80;1796756;79;22174;-71
2021/03/30 01:18:45;;;;;;;30.12;20.35;;;;;;;6.16;67.30;102079.66;1805292;79;21607;-72
2021/03/30 01:21:41;;;;;;;29.32;20.15;;;;;;;6.15;67.21;102075.34;1797473;79;21203;-72
2021/03/30 01:24:35;;;;;;;26.87;19.52;;;;;;;6.16;67.29;102079.66;1809938;79;21370;-70
2021/03/30 01:27:22;;;;;;;26.15;19.02;;;;;;;6.13;67.23;102079.22;1800091;79;21234;-72
2021/03/30 01:29:53;;;;;;;26.62;19.37;;;;;;;6.11;67.15;102076.22;1752590;79;21107;-71
2021/03/30 01:32:39;;;;;;;26.00;18.30;;;;;;;6.10;67.17;102072.45;1802043;79;21186;-71
2021/03/30 01:35:11;;;;;;;28.42;19.48;;;;;;;6.08;67.07;102078.44;1808010;79;21139;-71
2021/03/30 01:37:43;;;;;;;27.13;19.75;;;;;;;6.05;66.92;102082.28;1794715;79;21362;-71
2021/03/30 01:40:12;;;;;;;28.25;19.20;;;;;;;6.02;66.90;102078.71;1797806;79;21198;-72
2021/03/30 01:42:40;;;;;;;31.25;19.57;;;;;;;6.00;66.92;102085.21;1775990;79;21179;-71
2021/03/30 01:45:09;;;;;;;27.50;19.85;;;;;;;6.02;66.91;102088.48;1810333;78;21171;-71
2021/03/30 01:47:37;;;;;;;29.50;19.27;;;;;;;6.01;66.83;102087.66;1801526;79;21236;-70
2021/03/30 01:50:08;;;;;;;26.45;19.73;;;;;;;6.03;66.73;102086.98;1793096;79;21876;-71
2021/03/30 01:52:36;;;;;;;25.32;19.12;;;;;;;6.04;66.68;102086.47;1774308;79;21203;-71
2021/03/30 01:55:08;;;;;;;25.25;18.30;;;;;;;6.04;66.63;102082.48;1786708;79;21131;-71
2021/03/30 01:57:37;;;;;;;28.02;18.98;;;;;;;6.04;66.47;102083.81;1797094;79;21567;-71
2021/03/30 02:00:09;;;;;;;24.27;17.55;;;;;;;6.00;66.47;102083.88;1806730;77;21162;-71
2021/03/30 02:02:43;;;;;;;26.62;18.30;;;;;;;5.95;66.44;102079.63;1808506;79;21371;-71
2021/03/30 02:05:12;;;;;;;28.30;19.40;;;;;;;5.91;66.47;102081.00;1814034;79;21048;-70
2021/03/30 02:07:42;;;;;;;27.37;18.32;;;;;;;5.88;66.46;102093.61;1799004;79;21132;-71
2021/03/30 02:12:51;;;;;;;27.97;18.77;;;;;;;5.92;66.51;102095.89;1758018;80;23046;-71
2021/03/30 02:15:19;;;;;;;24.70;18.30;;;;;;;5.84;66.46;102094.19;1736893;81;21213;-71
2021/03/30 02:17:55;;;;;;;24.98;17.90;;;;;;;5.83;66.41;102097.34;1741882;81;22793;-71
2021/03/30 02:20:31;;;;;;;25.02;18.65;;;;;;;5.82;66.38;102097.05;1708853;82;21624;-71
2021/03/30 02:23:06;;;;;;;23.38;16.48;;;;;;;5.82;66.34;102097.05;1733672;81;21128;-71
2021/03/30 02:25:35;;;;;;;23.38;17.25;;;;;;;5.83;66.20;102100.00;1728441;81;21723;-71
2021/03/30 02:28:07;;;;;;;23.20;17.42;;;;;;;5.80;66.29;102097.72;1728153;81;21561;-71
2021/03/30 02:30:36;;;;;;;27.67;17.60;;;;;;;5.81;66.27;102100.68;1732459;81;21345;-72
2021/03/30 02:33:05;;;;;;;23.85;17.85;;;;;;;5.81;66.20;102100.68;1740939;81;21045;-71
2021/03/30 02:35:33;;;;;;;25.55;17.95;;;;;;;5.80;66.12;102097.72;1727527;81;21147;-71
2021/03/30 02:38:03;;;;;;;22.82;16.77;;;;;;;5.81;65.97;102095.38;1733863;81;21139;-71
2021/03/30 02:40:31;;;;;;;23.90;17.20;;;;;;;5.83;66.04;102099.19;1751270;81;21200;-70
2021/03/30 02:42:59;;;;;;;25.30;18.57;;;;;;;5.87;66.15;102098.61;1706205;83;21797;-71
2021/03/30 02:45:29;;;;;;;23.83;17.02;;;;;;;5.90;66.34;102094.77;1752021;81;21142;-71
2021/03/30 02:48:02;;;;;;;23.30;16.62;;;;;;;5.91;66.34;102098.23;1743814;81;21099;-71
2021/03/30 02:50:30;;;;;;;23.87;16.90;;;;;;;5.93;66.07;102093.61;1739013;81;21166;-70
2021/03/30 02:52:57;;;;;;;23.42;16.65;;;;;;;5.95;65.87;102099.53;1735124;81;21182;-70
2021/03/30 02:55:26;;;;;;;23.90;16.00;;;;;;;5.97;65.70;102097.52;1709941;83;21390;-71
2021/03/30 02:57:54;;;;;;;23.00;17.02;;;;;;;5.99;65.79;102095.48;1728136;81;21186;-72
2021/03/30 03:00:22;;;;;;;20.57;15.53;;;;;;;5.99;65.95;102092.83;1709183;83;21135;-71
2021/03/30 03:02:50;;;;;;;21.42;15.58;;;;;;;5.99;65.76;102098.13;1709669;83;21133;-71
2021/03/30 03:05:18;;;;;;;22.52;15.32;;;;;;;5.98;65.67;102095.17;1715039;83;21126;-70
2021/03/30 03:07:46;;;;;;;22.07;15.78;;;;;;;5.97;65.69;102096.19;1707129;83;21366;-71
2021/03/30 03:10:14;;;;;;;23.67;16.73;;;;;;;5.96;65.59;102099.86;1709632;81;21187;-71
2021/03/30 03:12:43;;;;;;;20.62;15.30;;;;;;;5.97;65.51;102097.02;1738723;81;21122;-71
2021/03/30 03:15:13;;;;;;;21.50;15.70;;;;;;;5.97;65.51;102100.98;1735626;81;21252;-71
2021/03/30 03:17:44;;;;;;;23.12;15.98;;;;;;;5.98;65.46;102097.83;1732740;81;21151;-71
2021/03/30 03:20:13;;;;;;;22.45;15.65;;;;;;;5.99;65.24;102098.98;1744103;81;21376;-71
2021/03/30 03:22:40;;;;;;;22.35;15.93;;;;;;;6.02;65.22;102098.61;1738735;81;21134;-71
2021/03/30 03:25:13;;;;;;;21.82;16.42;;;;;;;6.05;65.19;102102.69;1745284;81;21226;-70
2021/03/30 03:27:40;;;;;;;23.10;15.15;;;;;;;6.07;65.15;102101.50;1757356;81;21194;-71
2021/03/30 03:30:10;;;;;;;21.35;15.15;;;;;;;6.10;64.91;102104.28;1754518;81;21245;-71
2021/03/30 03:32:40;;;;;;;20.32;14.35;;;;;;;6.11;64.90;102105.41;1735526;81;21435;-71
2021/03/30 03:35:13;;;;;;;22.55;15.15;;;;;;;6.13;64.66;102106.56;1727973;81;21229;-71
2021/03/30 03:37:45;;;;;;;22.42;15.43;;;;;;;6.13;64.83;102111.87;1728028;81;21167;-71
2021/03/30 03:40:18;;;;;;;22.58;14.98;;;;;;;6.13;64.87;102114.52;1735554;81;21185;-71
2021/03/30 03:42:45;;;;;;;22.37;15.13;;;;;;;6.14;64.78;102114.01;1737706;81;21550;-71
2021/03/30 03:45:14;;;;;;;23.15;15.63;;;;;;;6.13;65.01;102109.22;1739021;81;21372;-70
2021/03/30 03:47:43;;;;;;;23.45;17.17;;;;;;;6.11;64.94;102105.91;1727261;81;21160;-70
2021/03/30 03:50:13;;;;;;;28.42;18.48;;;;;;;6.10;65.10;102108.27;1709494;81;21190;-70
2021/03/30 03:52:53;;;;;;;27.25;19.15;;;;;;;6.10;65.28;102114.89;1729537;81;28857;-71
2021/03/30 03:55:21;;;;;;;27.48;19.07;;;;;;;6.10;65.54;102117.04;1754392;81;21180;-71
2021/03/30 03:57:59;;;;;;;28.23;19.07;;;;;;;6.11;65.83;102119.18;1725534;83;21396;-70
2021/03/30 04:00:28;;;;;;;28.35;19.20;;;;;;;6.11;65.97;102123.16;1740283;81;21159;-70
2021/03/30 04:03:21;;;;;;;29.80;19.92;;;;;;;6.11;66.08;102122.65;1717918;82;21641;-70
2021/03/30 04:06:11;;;;;;;31.27;20.87;;;;;;;6.10;66.34;102127.65;1737571;81;21164;-70
2021/03/30 04:08:52;;;;;;;27.70;20.55;;;;;;;6.10;66.74;102129.48;1708911;82;21189;-70
2021/03/30 04:11:20;;;;;;;24.12;17.45;;;;;;;6.06;67.04;102127.72;1755835;81;21380;-70
2021/03/30 04:13:51;;;;;;;27.32;20.70;;;;;;;6.06;67.01;102129.04;1718157;81;21130;-71
2021/03/30 04:16:19;;;;;;;31.12;20.72;;;;;;;6.09;67.16;102134.48;1728874;81;21077;-71
2021/03/30 04:18:47;;;;;;;30.37;20.35;;;;;;;6.10;67.34;102137.44;1734948;81;21527;-71
2021/03/30 04:21:24;;;;;;;29.00;20.20;;;;;;;6.12;67.66;102134.11;1734390;81;21122;-71
2021/03/30 04:23:52;;;;;;;27.85;19.40;;;;;;;6.13;67.89;102138.91;1740151;81;21432;-71
2021/03/30 04:26:20;;;;;;;25.85;18.02;;;;;;;6.15;67.98;102144.83;1734904;81;21684;-72
2021/03/30 04:28:47;;;;;;;30.00;19.05;;;;;;;6.17;68.01;102143.63;1733590;81;21087;-70
2021/03/30 04:31:16;;;;;;;25.20;18.10;;;;;;;6.19;68.18;102144.28;1749820;81;21174;-71
2021/03/30 04:33:43;;;;;;;26.48;17.98;;;;;;;6.19;68.32;102146.11;1735018;81;21110;-71
2021/03/30 04:36:11;;;;;;;26.05;18.27;;;;;;;6.18;68.29;102147.92;1745454;81;21216;-71
2021/03/30 04:38:39;;;;;;;22.52;16.55;;;;;;;6.18;68.42;102153.73;1743147;81;21198;-72
2021/03/30 04:41:09;;;;;;;21.95;14.73;;;;;;;6.19;68.37;102148.26;1708257;81;21190;-72
2021/03/30 04:43:39;;;;;;;22.13;14.45;;;;;;;6.20;67.98;102157.03;1731546;81;21196;-72
2021/03/30 04:46:08;;;;;;;16.55;12.33;;;;;;;6.19;67.69;102156.22;1742941;81;21181;-71
2021/03/30 04:48:39;;;;;;;18.48;12.63;;;;;;;6.20;67.29;102153.05;1739243;81;21367;-70
2021/03/30 04:51:07;;;;;;;17.52;11.40;;;;;;;6.21;66.93;102158.67;1751017;81;21138;-71
2021/03/30 04:53:35;;;;;;;17.95;11.78;;;;;;;6.22;66.29;102157.17;1732960;81;21244;-71
2021/03/30 04:56:05;;;;;;;15.65;11.30;;;;;;;6.24;65.80;102159.11;1735225;81;21641;-70
2021/03/30 04:58:32;;;;;;;17.62;11.33;;;;;;;6.26;65.30;102164.24;1737159;81;21219;-70
2021/03/30 05:01:02;;;;;;;16.97;11.05;;;;;;;6.28;64.94;102160.37;1717511;83;21807;-70
2021/03/30 05:03:31;;;;;;;16.90;11.80;;;;;;;6.31;64.54;102161.32;1705993;81;21241;-71
2021/03/30 05:05:59;;;;;;;15.40;10.55;;;;;;;6.34;64.17;102157.47;1708462;83;21130;-70
2021/03/30 05:08:26;;;;;;;14.65;10.50;;;;;;;6.38;63.97;102165.87;1727656;81;21155;-71
2021/03/30 05:10:54;;;;;;;18.32;10.80;;;;;;;6.38;63.83;102160.56;1754444;81;21186;-71
2021/03/30 05:13:22;;;;;;;15.70;10.68;;;;;;;6.40;63.79;102158.05;1753230;81;21370;-71
2021/03/30 05:15:50;;;;;;;16.32;10.70;;;;;;;6.42;63.60;102161.85;1715471;81;21136;-71
2021/03/30 05:18:17;;;;;;;14.23;11.00;;;;;;;6.40;63.51;102171.83;1730325;81;21138;-70
2021/03/30 05:20:46;;;;;;;16.25;10.68;;;;;;;6.44;63.48;102174.41;1736789;81;21713;-71
2021/03/30 05:23:14;;;;;;;17.30;11.45;;;;;;;6.47;63.34;102174.03;1754245;81;21107;-71
2021/03/30 05:25:42;;;;;;;17.37;11.80;;;;;;;6.51;63.16;102171.30;1735608;81;22552;-70
2021/03/30 05:28:11;;;;;;;16.60;11.30;;;;;;;6.56;63.02;102170.25;1732433;81;21222;-70
2021/03/30 05:30:39;;;;;;;15.45;10.50;;;;;;;6.58;62.81;102169.53;1734126;81;21783;-72
2021/03/30 05:33:07;;;;;;;17.45;10.43;;;;;;;6.64;62.48;102178.06;1731710;81;21129;-72
2021/03/30 05:35:35;;;;;;;15.93;10.43;;;;;;;6.67;61.72;102169.72;1734918;81;21187;-70
2021/03/30 05:38:04;;;;;;;15.90;10.20;;;;;;;6.68;61.40;102172.71;1723470;81;21212;-71
2021/03/30 05:40:32;;;;;;;15.18;10.30;;;;;;;6.75;61.14;102174.91;1749733;81;21943;-71
2021/03/30 05:43:00;;;;;;;16.37;10.23;;;;;;;6.83;60.94;102177.11;1729997;81;21119;-70
2021/03/30 05:45:29;;;;;;;15.72;10.03;;;;;;;6.91;60.59;102172.48;1738421;81;21060;-70
2021/03/30 05:47:58;;;;;;;19.35;10.32;;;;;;;7.00;59.96;102176.62;1738089;81;21164;-70
2021/03/30 05:50:29;;;;;;;16.45;10.10;;;;;;;7.06;59.38;102177.69;1730270;81;21279;-69
2021/03/30 05:53:05;;;;;;;15.13;10.03;;;;;;;7.13;59.06;102181.20;1727359;81;21189;-70
2021/03/30 05:55:37;;;;;;;14.83;10.10;;;;;;;7.23;58.87;102183.02;1734365;81;21558;-71
2021/03/30 05:58:07;;;;;;;18.00;9.80;;;;;;;7.32;58.56;102183.69;1731941;81;21075;-70
2021/03/30 06:00:37;;;;;;;16.20;9.95;;;;;;;7.43;58.14;102181.80;1744128;81;21141;-71
2021/03/30 06:03:25;;;;;;;16.73;10.75;;;;;;;7.51;57.47;102182.17;1715586;81;21185;-70
2021/03/30 06:05:57;;;;;;;17.55;9.93;;;;;;;7.58;57.02;102178.22;1740524;81;21247;-69
2021/03/30 06:08:27;;;;;;;14.70;10.70;;;;;;;7.68;56.66;102177.34;1728414;81;21078;-71
2021/03/30 06:10:58;;;;;;;15.13;10.55;;;;;;;7.79;56.34;102181.27;1730107;81;21621;-70
2021/03/30 06:13:56;;;;;;;16.30;10.80;;;;;;;7.87;56.08;102180.59;1735631;81;21189;-70
2021/03/30 06:16:37;;;;;;;15.58;10.15;;;;;;;7.98;55.94;102179.19;1729505;81;21372;-70
2021/03/30 06:19:16;;;;;;;16.73;10.88;;;;;;;8.12;55.53;102176.88;1739182;81;21630;-71
2021/03/30 06:21:48;;;;;;;16.80;10.60;;;;;;;8.20;55.25;102174.04;1739993;81;21653;-71
2021/03/30 06:24:26;;;;;;;18.60;11.03;;;;;;;8.29;55.05;102170.70;1742910;81;21259;-71
2021/03/30 06:27:07;;;;;;;21.82;10.80;;;;;;;8.35;54.83;102175.18;1734012;81;21213;-71
2021/03/30 06:29:38;;;;;;;18.10;11.45;;;;;;;8.43;54.69;102171.05;1735545;81;21298;-71
2021/03/30 06:32:14;;;;;;;17.20;11.65;;;;;;;8.46;54.07;102175.15;1723933;81;21188;-72
2021/03/30 06:34:45;;;;;;;18.40;11.08;;;;;;;8.49;53.97;102177.41;1717711;81;21150;-70
2021/03/30 06:37:40;;;;;;;16.67;10.98;;;;;;;8.55;53.87;102179.23;1732244;81;21184;-71
2021/03/30 06:40:25;;;;;;;15.25;10.50;;;;;;;8.64;53.46;102178.02;1732734;81;21165;-71
2021/03/30 06:45:52;;;;;;;13.60;9.47;;;;;;;8.89;52.30;102179.56;1822836;77;22859;-71
2021/03/30 06:48:20;;;;;;;14.05;9.15;;;;;;;8.93;51.82;102183.97;1840328;77;21099;-71
2021/03/30 06:50:49;;;;;;;12.68;8.88;;;;;;;9.02;51.41;102179.27;1796850;79;21401;-72
2021/03/30 06:53:18;;;;;;;12.70;8.90;;;;;;;9.10;50.91;102184.36;1815330;78;21183;-71
2021/03/30 06:55:51;;;;;;;16.87;9.30;;;;;;;9.14;50.57;102185.58;1803750;77;21461;-71
2021/03/30 06:58:21;;;;;;;15.75;9.30;;;;;;;9.19;50.43;102191.12;1815306;77;21148;-70
2021/03/30 07:00:50;;;;;;;15.53;8.58;;;;;;;9.26;50.26;102191.11;1841153;77;21612;-70
2021/03/30 07:03:21;;;;;;;15.75;8.60;;;;;;;9.31;50.01;102192.14;1819239;78;22373;-70
2021/03/30 07:05:52;;;;;;;;;;;;;;;9.39;49.89;102192.42;1828724;78;21137;-70
2021/03/30 07:08:22;;;;;;;12.85;7.92;;;;;;;9.50;49.37;102195.77;1816104;78;20231;-70
2021/03/30 07:10:55;;;;;;;13.30;8.60;;;;;;;9.61;48.74;102203.14;1822256;78;21160;-71
2021/03/30 07:13:24;;;;;;;15.80;9.33;;;;;;;9.71;48.33;102203.22;1816429;78;21208;-71
2021/03/30 07:16:09;;;;;;;14.43;8.60;;;;;;;9.82;47.88;102200.69;1816381;78;22608;-71
2021/03/30 07:18:43;;;;;;;13.68;8.28;;;;;;;9.94;47.85;102206.20;1846390;77;21192;-71
2021/03/30 07:21:19;;;;;;;12.35;7.87;;;;;;;10.07;47.01;102204.80;1839683;77;21663;-71
2021/03/30 07:23:53;;;;;;;12.05;7.87;;;;;;;10.20;46.58;102203.07;1822120;77;21614;-70
2021/03/30 07:26:27;;;;;;;11.55;6.85;;;;;;;10.34;46.49;102206.02;1855269;77;21570;-72
2021/03/30 07:29:06;;;;;;;11.63;7.73;;;;;;;10.53;46.00;102205.08;1849327;77;21364;-71
2021/03/30 07:31:45;;;;;;;9.90;7.07;;;;;;;10.75;45.71;102199.35;1823743;78;21378;-71
2021/03/30 07:34:26;;;;;;;10.47;6.83;;;;;;;11.01;44.89;102202.33;1853871;77;21234;-72
2021/03/30 07:37:03;;;;;;;12.40;6.90;;;;;;;11.22;44.13;102193.91;1852145;77;21316;-72
2021/03/30 07:39:38;;;;;;;9.83;6.40;;;;;;;11.48;43.01;102204.86;1800159;78;21884;-72
2021/03/30 07:42:07;;;;;;;9.43;6.53;;;;;;;11.67;42.06;102203.50;1775615;79;22642;-73
2021/03/30 07:44:35;;;;;;;10.37;7.00;;;;;;;11.81;41.88;102204.97;1822141;77;21860;-71
2021/03/30 07:47:04;;;;;;;11.17;6.17;;;;;;;11.95;41.34;102202.48;1817760;78;21465;-72
2021/03/30 07:49:33;;;;;;;11.17;5.97;;;;;;;12.05;40.44;102206.48;1829351;77;21269;-72
2021/03/30 07:52:27;;;;;;;10.67;6.47;;;;;;;12.14;40.12;102202.42;1762341;80;21367;-71
2021/03/30 07:55:21;;;;;;;9.67;6.00;;;;;;;12.21;39.75;102203.17;1801889;77;21408;-72
2021/03/30 07:57:59;;;;;;;11.63;6.50;;;;;;;12.31;39.16;102195.41;1811999;77;21431;-71
2021/03/30 08:00:41;;;;;;;11.90;6.47;;;;;;;12.36;39.09;102198.20;1852003;77;21334;-72
2021/03/30 08:03:26;;;;;;;10.63;5.90;;;;;;;12.41;38.77;102205.05;1820456;78;21422;-72
2021/03/30 08:06:24;;;;;;;10.17;6.60;;;;;;;12.42;38.34;102201.31;1820585;78;21355;-71
2021/03/30 08:09:00;;;;;;;11.80;6.00;;;;;;;12.37;38.27;102205.22;1804084;78;21438;-72
2021/03/30 08:11:50;;;;;;;9.23;5.43;;;;;;;12.37;36.91;102197.67;1849414;77;21379;-71
2021/03/30 08:14:28;;;;;;;7.67;4.50;;;;;;;12.36;36.94;102204.90;1836597;77;21375;-72
2021/03/30 08:17:01;;;;;;;6.17;4.25;;;;;;;12.39;35.82;102194.25;1822979;78;21317;-70
2021/03/30 08:19:29;;;;;;;7.97;4.73;;;;;;;12.41;35.87;102198.88;1812318;77;21299;-71
2021/03/30 08:22:07;;;;;;;6.93;4.00;;;;;;;12.45;35.32;102197.36;1814876;77;21496;-71
2021/03/30 08:24:49;;;;;;;8.13;3.90;;;;;;;12.48;34.02;102192.08;1806760;77;21434;-72
2021/03/30 08:27:38;;;;;;;5.67;3.73;;;;;;;12.48;32.81;102189.39;1818886;77;21451;-73
2021/03/30 08:30:39;;;;;;;7.05;4.17;;;;;;;12.48;32.64;102189.39;1824800;77;21336;-71
2021/03/30 08:33:07;;;;;;;7.17;3.97;;;;;;;12.50;32.04;102188.63;1820388;77;21073;-72
2021/03/30 08:35:38;;;;;;;15.87;4.50;;;;;;;12.52;31.15;102188.69;1834944;78;21456;-71
2021/03/30 08:38:07;;;;;;;14.37;4.47;;;;;;;12.53;31.35;102180.13;1798769;77;21293;-74
2021/03/30 08:40:40;;;;;;;16.77;5.90;;;;;;;12.57;31.54;102180.80;1784905;79;21389;-72
2021/03/30 08:43:20;;;;;;;15.40;5.90;;;;;;;12.60;31.53;102180.33;1828128;77;21924;-71
2021/03/30 08:46:03;;;;;;;11.87;6.00;;;;;;;12.66;31.44;102171.88;1809307;77;21554;-71
2021/03/30 08:48:48;;;;;;;10.43;5.28;;;;;;;12.75;31.25;102178.53;1808563;78;22286;-71
2021/03/30 08:51:18;;;;;;;11.87;6.20;;;;;;;12.82;31.08;102175.20;1755207;78;21175;-70
2021/03/30 08:53:47;;;;;;;15.33;7.50;;;;;;;12.85;31.12;102179.30;1804528;78;21392;-71
2021/03/30 08:56:27;;;;;;;15.77;7.57;;;;;;;12.89;31.33;102177.25;1829414;77;21257;-72
2021/03/30 08:58:57;;;;;;;22.42;13.40;;;;;;;12.98;31.63;102176.92;1814348;77;21341;-71
2021/03/30 09:01:26;;;;;;;28.60;15.97;;;;;;;13.05;31.16;102170.91;1830448;77;21764;-70
2021/03/30 09:03:55;;;;;;;25.03;13.83;;;;;;;13.11;31.33;102178.83;1834626;77;21316;-71
2021/03/30 09:06:36;;;;;;;19.83;12.90;;;;;;;13.16;31.36;102179.46;1816355;77;21243;-70
2021/03/30 09:09:24;;;;;;;;;;;;;;;13.19;31.37;102172.28;1837442;77;21397;-70
2021/03/30 09:11:52;;;;;;;13.57;8.37;;;;;;;13.28;31.94;102166.89;1791329;79;20256;-72
2021/03/30 09:14:21;;;;;;;20.63;9.47;;;;;;;13.40;31.70;102170.09;1806224;78;21402;-71
2021/03/30 09:16:51;;;;;;;17.40;8.93;;;;;;;13.49;31.16;102176.70;1837130;77;21354;-71
2021/03/30 09:19:29;;;;;;;18.07;7.43;;;;;;;13.55;30.83;102169.05;1840000;77;21489;-72
2021/03/30 09:27:41;;;;;;;10.53;6.53;;;;;;;13.90;30.52;102165.45;1771080;80;21203;-71
2021/03/30 09:30:14;;;;;;;9.97;5.63;;;;;;;13.90;30.52;102165.45;1804822;77;22198;-70
2021/03/30 09:32:45;;;;;;;10.78;5.78;;;;;;;13.91;29.63;102167.89;1759977;81;21739;-71
2021/03/30 09:35:16;;;;;;;13.43;5.97;;;;;;;13.95;30.75;102166.88;1800884;77;21171;-70
2021/03/30 09:37:49;;;;;;;10.20;5.40;;;;;;;13.95;30.75;102166.88;1797747;78;22066;-70
2021/03/30 09:40:21;;;;;;;12.83;5.20;;;;;;;13.96;29.82;102163.16;1777717;79;21465;-71
2021/03/30 09:42:51;;;;;;;9.77;5.17;;;;;;;13.90;29.64;102165.45;1807235;78;21549;-70
2021/03/30 09:45:23;;;;;;;11.60;5.93;;;;;;;13.92;29.96;102153.42;1800844;77;21990;-71
2021/03/30 09:47:51;;;;;;;10.63;6.00;;;;;;;13.99;30.21;102154.63;1778400;78;21663;-70
2021/03/30 09:50:21;;;;;;;13.90;6.10;;;;;;;14.07;30.11;102156.91;1789363;78;21713;-69
2021/03/30 09:52:50;;;;;;;9.37;5.80;;;;;;;14.05;30.35;102159.04;1793452;79;21599;-70
2021/03/30 09:55:33;;;;;;;9.10;5.80;;;;;;;14.13;30.59;102145.20;1782023;79;21575;-70
2021/03/30 09:58:04;;;;;;;10.07;5.73;;;;;;;14.20;29.87;102151.23;1788162;78;21527;-70
2021/03/30 10:00:47;;;;;;;11.27;6.13;;;;;;;14.31;29.61;102146.34;1822517;77;22317;-69
2021/03/30 10:03:19;;;;;;;11.00;6.50;;;;;;;14.31;30.15;102145.49;1797116;79;21650;-69
2021/03/30 10:05:47;;;;;;;9.90;6.00;;;;;;;14.41;29.97;102149.73;1791884;79;21589;-70
2021/03/30 10:08:20;;;;;;;10.17;6.50;;;;;;;14.41;29.97;102149.73;1790605;79;21596;-69
2021/03/30 10:10:56;;;;;;;11.73;6.47;;;;;;;14.41;29.82;102140.81;1792801;79;21657;-69
2021/03/30 10:13:37;;;;;;;9.07;5.43;;;;;;;14.28;30.12;102141.44;1755082;79;22051;-70
2021/03/30 10:16:13;;;;;;;11.10;6.03;;;;;;;14.28;30.48;102136.06;1787290;79;21827;-69
2021/03/30 10:18:44;;;;;;;10.47;5.73;;;;;;;14.34;30.41;102132.11;1807917;79;21681;-68
2021/03/30 10:21:19;;;;;;;8.90;5.67;;;;;;;14.43;30.38;102138.18;1798026;79;21807;-69
2021/03/30 10:23:49;;;;;;;8.57;5.47;;;;;;;14.50;30.21;102125.92;1792200;79;21675;-69
2021/03/30 10:26:25;;;;;;;8.83;5.17;;;;;;;14.58;30.49;102124.21;1784122;79;22397;-68
2021/03/30 10:29:03;;;;;;;12.10;6.10;;;;;;;14.65;29.99;102122.70;1789487;79;21590;-69
2021/03/30 10:31:47;;;;;;;8.93;6.03;;;;;;;14.45;30.51;102117.25;1790537;79;21590;-69
2021/03/30 10:34:28;;;;;;;8.87;5.40;;;;;;;14.45;30.51;102123.98;1795390;79;21856;-69
2021/03/30 10:37:00;;;;;;;9.77;5.57;;;;;;;14.54;29.59;102119.86;1795832;79;21834;-69
2021/03/30 10:39:34;;;;;;;10.05;6.03;;;;;;;14.54;29.59;102119.86;1776630;80;21812;-70
2021/03/30 10:42:13;;;;;;;11.17;5.47;;;;;;;14.68;30.33;102109.57;1788714;79;21507;-69
2021/03/30 10:44:57;;;;;;;9.53;5.90;;;;;;;14.74;30.29;102109.94;1754764;79;22824;-70
2021/03/30 10:47:35;;;;;;;11.57;6.13;;;;;;;14.76;30.20;102110.48;1723848;80;21631;-70
2021/03/30 10:50:16;;;;;;;9.43;6.10;;;;;;;14.82;30.45;102099.28;1736688;81;21744;-69
2021/03/30 10:52:44;;;;;;;9.33;6.10;;;;;;;14.88;29.78;102104.20;1748218;81;21913;-69
2021/03/30 10:57:57;;;;;;;9.37;6.23;;;;;;;14.98;30.08;102090.89;1809814;77;23371;-69
2021/03/30 11:00:25;;;;;;;8.77;5.60;;;;;;;14.82;29.97;102093.89;1755571;80;21200;-69
2021/03/30 11:02:54;;;;;;;10.40;6.03;;;;;;;14.82;29.97;102093.89;1752720;80;21737;-71
2021/03/30 11:05:22;;;;;;;9.87;6.00;;;;;;;14.81;30.22;102086.05;1778781;78;21879;-71
2021/03/30 11:07:49;;;;;;;11.70;6.17;;;;;;;14.84;29.83;102085.56;1788734;79;21793;-71
2021/03/30 11:10:18;;;;;;;11.40;7.43;;;;;;;14.85;30.55;102086.67;1752283;80;21885;-71
2021/03/30 11:12:46;;;;;;;11.67;6.90;;;;;;;14.87;30.27;102079.69;1766388;80;21859;-72
2021/03/30 11:15:15;;;;;;;9.83;7.17;;;;;;;14.94;30.18;102077.66;1759183;81;21906;-71
2021/03/30 11:17:42;;;;;;;10.63;6.33;;;;;;;14.98;28.99;102072.87;1765541;80;21929;-71
2021/03/30 11:20:13;;;;;;;8.87;6.43;;;;;;;14.99;30.32;102075.02;1771983;81;21880;-71
2021/03/30 11:25:19;;;;;;;9.37;6.23;;;;;;;15.12;29.96;102074.65;1829515;77;22789;-70
2021/03/30 11:27:50;;;;;;;16.07;8.07;;;;;;;15.16;29.81;102076.30;1806650;78;21159;-72
2021/03/30 11:30:23;;;;;;;13.60;8.00;;;;;;;15.19;30.08;102077.16;1816482;79;21818;-71
2021/03/30 11:35:44;;;;;;;10.00;6.60;;;;;;;15.19;29.90;102072.58;1793237;79;21737;-72
2021/03/30 11:38:12;;;;;;;11.33;7.00;;;;;;;15.24;28.89;102067.27;1836388;77;21834;-72
2021/03/30 11:40:39;;;;;;;;;;;;;;;15.17;28.97;102063.96;1857801;77;21155;-72
2021/03/30 11:43:07;;;;;;;13.83;7.47;;;;;;;15.11;29.51;102058.23;1845232;77;21317;-71
2021/03/30 11:45:36;;;;;;;14.63;8.17;;;;;;;15.13;29.63;102060.12;1844194;77;22316;-71
2021/03/30 11:48:06;;;;;;;13.03;7.27;;;;;;;15.16;30.64;102058.27;1837083;77;21876;-72
2021/03/30 11:50:34;;;;;;;9.03;6.93;;;;;;;15.16;29.82;102056.93;1820969;78;21855;-73
2021/03/30 11:53:02;;;;;;;10.60;6.83;;;;;;;15.23;29.21;102058.08;1817046;78;22446;-71
2021/03/30 11:55:30;;;;;;;13.93;6.67;;;;;;;15.29;28.96;102051.70;1822457;78;22318;-72
2021/03/30 11:57:58;;;;;;;12.70;7.67;;;;;;;15.34;28.81;102050.96;1831867;78;21867;-69
2021/03/30 12:00:26;;;;;;;10.60;7.03;;;;;;;15.32;28.54;102043.66;1828405;78;21769;-71
2021/03/30 12:02:55;;;;;;;12.03;7.10;;;;;;;15.25;28.31;102041.97;1823928;78;21824;-71